createdAt,value
2022-11-01T00:02:05.543Z,34.42
2022-11-01T00:04:32.684Z,30.60
2022-11-01T00:06:59.897Z,35.13
2022-11-01T00:09:27.000Z,33.03
2022-11-01T00:11:54.152Z,34.63
2022-11-01T00:14:21.668Z,29.17
2022-11-01T00:16:49.243Z,30.25
2022-11-01T00:19:16.591Z,34.33
2022-11-01T00:21:43.696Z,30.98
2022-11-01T00:24:10.902Z,32.80
2022-11-01T00:26:38.038Z,28.77
2022-11-01T00:29:05.197Z,24.25
2022-11-01T00:31:32.302Z,30.77
2022-11-01T00:34:03.657Z,31.20
2022-11-01T00:36:30.761Z,30.05
2022-11-01T00:38:57.858Z,31.65
2022-11-01T00:41:24.981Z,29.20
2022-11-01T00:43:52.106Z,29.30
2022-11-01T00:46:19.226Z,30.95
2022-11-01T00:48:46.410Z,31.27
2022-11-01T00:51:13.544Z,32.25
2022-11-01T00:53:40.912Z,32.95
2022-11-01T00:56:08.432Z,28.48
2022-11-01T00:58:35.631Z,28.25
2022-11-01T01:01:02.920Z,28.02
2022-11-01T01:03:30.180Z,26.23
2022-11-01T01:05:57.448Z,26.63
2022-11-01T01:08:25.133Z,26.27
2022-11-01T01:10:52.253Z,26.25
2022-11-01T01:13:19.652Z,23.33
2022-11-01T01:15:46.848Z,24.00
2022-11-01T01:18:14.138Z,24.60
2022-11-01T01:20:41.345Z,23.25
2022-11-01T01:23:08.480Z,23.75
2022-11-01T01:25:35.722Z,22.20
2022-11-01T01:28:02.988Z,20.33
2022-11-01T01:30:30.302Z,20.30
2022-11-01T01:32:57.470Z,20.02
2022-11-01T01:35:24.565Z,20.90
2022-11-01T01:37:51.620Z,20.38
2022-11-01T01:40:18.675Z,19.52
2022-11-01T01:42:47.188Z,19.88
2022-11-01T01:45:22.334Z,19.75
2022-11-01T01:47:51.721Z,19.42
2022-11-01T01:50:24.563Z,20.02
2022-11-01T01:52:54.789Z,19.90
2022-11-01T01:55:25.272Z,20.23
2022-11-01T01:57:53.693Z,20.20
2022-11-01T02:00:21.021Z,20.58
2022-11-01T02:02:48.116Z,20.45
2022-11-01T02:05:15.180Z,19.20
2022-11-01T02:07:42.716Z,18.08
2022-11-01T02:10:10.206Z,20.25
2022-11-01T02:12:37.339Z,20.45
2022-11-01T02:15:13.498Z,20.13
2022-11-01T02:17:40.580Z,19.20
2022-11-01T02:20:10.503Z,20.48
2022-11-01T02:22:56.115Z,19.35
2022-11-01T02:25:38.458Z,18.23
2022-11-01T02:28:05.527Z,18.02
2022-11-01T02:31:05.178Z,20.27
2022-11-01T02:33:36.042Z,18.95
2022-11-01T02:36:05.813Z,18.08
2022-11-01T02:38:42.047Z,19.55
2022-11-01T02:41:12.776Z,17.13
2022-11-01T02:43:39.832Z,19.42
2022-11-01T02:46:27.401Z,19.13
2022-11-01T02:48:55.705Z,18.67
2022-11-01T02:51:24.298Z,21.83
2022-11-01T02:53:51.754Z,20.13
2022-11-01T02:56:19.353Z,23.67
2022-11-01T02:58:47.137Z,23.73
2022-11-01T03:01:17.718Z,22.83
2022-11-01T03:03:46.397Z,22.98
2022-11-01T03:06:15.150Z,23.38
2022-11-01T03:08:42.236Z,23.13
2022-11-01T03:11:15.551Z,25.70
2022-11-01T03:14:01.082Z,25.38
2022-11-01T03:16:37.429Z,28.60
2022-11-01T03:19:19.383Z,24.88
2022-11-01T03:21:52.233Z,24.80
2022-11-01T03:24:27.280Z,26.83
2022-11-01T03:27:14.667Z,24.05
2022-11-01T03:29:43.669Z,27.27
2022-11-01T03:32:11.225Z,27.50
2022-11-01T03:34:39.774Z,24.25
2022-11-01T03:37:09.962Z,25.17
2022-11-01T03:39:40.697Z,25.67
2022-11-01T03:42:09.794Z,26.85
2022-11-01T03:44:42.572Z,24.67
2022-11-01T03:47:09.791Z,27.15
2022-11-01T03:49:36.880Z,29.90
2022-11-01T03:52:04.037Z,24.65
2022-11-01T03:54:31.081Z,25.98
2022-11-01T03:56:58.194Z,28.35
2022-11-01T03:59:25.478Z,28.60
2022-11-01T04:01:53.010Z,28.08
2022-11-01T04:04:20.253Z,26.85
2022-11-01T04:06:47.420Z,25.95
2022-11-01T04:09:14.593Z,26.30
2022-11-01T04:11:41.733Z,25.90
2022-11-01T04:14:27.467Z,25.55
2022-11-01T04:17:13.379Z,22.75
2022-11-01T04:19:59.262Z,25.35
2022-11-01T04:22:26.381Z,24.50
2022-11-01T04:24:53.460Z,26.27
2022-11-01T04:27:20.512Z,26.08
2022-11-01T04:29:47.553Z,25.40
2022-11-01T04:32:14.632Z,27.45
2022-11-01T04:34:44.573Z,23.73
2022-11-01T04:37:12.499Z,24.33
2022-11-01T04:39:39.595Z,26.08
2022-11-01T04:42:06.751Z,23.80
2022-11-01T04:44:33.865Z,27.15
2022-11-01T04:47:01.015Z,29.88
2022-11-01T04:49:28.097Z,28.70
2022-11-01T04:51:55.185Z,27.45
2022-11-01T04:54:22.247Z,30.15
2022-11-01T04:56:49.303Z,30.95
2022-11-01T04:59:16.351Z,31.48
2022-11-01T05:01:45.141Z,31.92
2022-11-01T05:04:12.473Z,32.55
2022-11-01T05:06:39.725Z,28.13
2022-11-01T05:09:06.950Z,29.35
2022-11-01T05:11:34.059Z,27.75
2022-11-01T05:14:01.096Z,26.70
2022-11-01T05:16:28.223Z,26.60
2022-11-01T05:18:55.269Z,25.92
2022-11-01T05:21:22.404Z,28.30
2022-11-01T05:23:49.564Z,24.35
2022-11-01T05:26:16.685Z,25.20
2022-11-01T05:28:43.796Z,25.73
2022-11-01T05:31:11.024Z,26.17
2022-11-01T05:33:38.178Z,28.25
2022-11-01T05:36:05.493Z,26.98
2022-11-01T05:38:32.675Z,26.38
2022-11-01T05:41:02.085Z,26.63
2022-11-01T05:43:29.225Z,25.48
2022-11-01T05:45:56.354Z,22.30
2022-11-01T05:48:23.486Z,23.65
2022-11-01T05:50:50.625Z,21.35
2022-11-01T05:53:17.721Z,22.23
2022-11-01T05:55:45.067Z,23.55
2022-11-01T05:58:12.156Z,23.23
2022-11-01T06:00:39.247Z,22.08
2022-11-01T06:03:06.872Z,23.55
2022-11-01T06:05:34.735Z,21.30
2022-11-01T06:08:02.617Z,19.70
2022-11-01T06:10:29.909Z,19.00
2022-11-01T06:12:57.245Z,18.30
2022-11-01T06:15:24.462Z,18.92
2022-11-01T06:18:01.219Z,19.33
2022-11-01T06:20:29.722Z,16.88
2022-11-01T06:22:57.255Z,16.40
2022-11-01T06:25:24.608Z,15.30
2022-11-01T06:27:51.727Z,14.48
2022-11-01T06:30:18.890Z,14.57
2022-11-01T06:32:46.150Z,14.10
2022-11-01T06:35:13.539Z,13.90
2022-11-01T06:37:40.930Z,13.77
2022-11-01T06:40:08.335Z,14.00
2022-11-01T06:42:35.512Z,14.52
2022-11-01T06:45:02.721Z,14.60
2022-11-01T06:47:30.004Z,15.40
2022-11-01T06:49:57.310Z,14.77
2022-11-01T06:52:24.558Z,13.25
2022-11-01T06:54:51.704Z,15.43
2022-11-01T06:57:19.060Z,13.45
2022-11-01T06:59:46.297Z,12.70
2022-11-01T07:02:14.702Z,14.30
2022-11-01T07:04:42.254Z,14.27
2022-11-01T07:07:09.505Z,13.27
2022-11-01T07:09:36.794Z,12.82
2022-11-01T07:12:04.072Z,13.43
2022-11-01T07:14:34.341Z,12.38
2022-11-01T07:17:01.499Z,13.18
2022-11-01T07:19:28.743Z,14.10
2022-11-01T07:21:56.077Z,13.48
2022-11-01T07:24:23.401Z,11.85
2022-11-01T07:26:50.596Z,10.98
2022-11-01T07:29:20.438Z,11.25
2022-11-01T07:31:47.777Z,10.23
2022-11-01T07:34:15.088Z,11.00
2022-11-01T07:36:42.394Z,11.23
2022-11-01T07:39:09.776Z,12.10
2022-11-01T07:41:36.970Z,10.68
2022-11-01T07:44:04.387Z,8.73
2022-11-01T07:46:32.172Z,10.63
2022-11-01T07:49:00.571Z,9.73
2022-11-01T07:51:28.261Z,9.73
2022-11-01T07:53:55.570Z,9.85
2022-11-01T07:56:22.857Z,10.93
2022-11-01T07:58:50.177Z,9.77
2022-11-01T08:01:17.612Z,8.65
2022-11-01T08:03:45.017Z,8.23
2022-11-01T08:06:12.374Z,8.32
2022-11-01T08:08:39.670Z,8.07
2022-11-01T08:11:06.932Z,7.65
2022-11-01T08:13:34.298Z,7.38
2022-11-01T08:16:05.299Z,7.15
2022-11-01T08:18:32.568Z,7.15
2022-11-01T08:21:00.033Z,6.68
2022-11-01T08:23:27.206Z,7.07
2022-11-01T08:25:54.876Z,6.47
2022-11-01T08:28:42.141Z,6.15
2022-11-01T08:31:34.754Z,6.75
2022-11-01T08:34:24.638Z,6.13
2022-11-01T08:43:40.399Z,6.35
2022-11-01T08:55:37.678Z,5.10
2022-11-01T08:58:30.198Z,5.72
2022-11-01T09:01:14.347Z,4.50
2022-11-01T09:03:45.053Z,5.22
2022-11-01T09:46:03.014Z,2.35
2022-11-01T09:48:32.038Z,1.92
2022-11-01T09:51:10.192Z,2.47
2022-11-01T10:02:45.852Z,1.40
2022-11-01T10:09:04.147Z,1.92
2022-11-01T10:43:03.604Z,2.63
2022-11-01T10:49:04.475Z,1.90
2022-11-01T16:24:17.775Z,2.58
2022-11-01T16:27:14.503Z,2.15
2022-11-01T16:29:54.545Z,2.45
2022-11-01T16:53:13.604Z,3.42
2022-11-01T16:56:35.692Z,3.72
2022-11-01T17:06:22.194Z,2.90
2022-11-01T17:08:54.925Z,2.63
2022-11-01T17:11:51.585Z,2.92
2022-11-01T17:21:18.369Z,2.88
2022-11-01T17:23:55.420Z,2.60
2022-11-01T17:26:33.192Z,4.43
2022-11-01T17:29:00.756Z,4.13
2022-11-01T17:31:41.751Z,2.70
2022-11-01T17:34:22.376Z,2.78
2022-11-01T17:36:58.346Z,2.78
2022-11-01T17:39:30.960Z,2.75
2022-11-01T17:44:46.454Z,2.42
2022-11-01T17:47:18.966Z,4.35
2022-11-01T17:50:10.473Z,4.90
2022-11-01T17:52:50.241Z,2.60
2022-11-01T17:55:25.854Z,2.67
2022-11-01T17:58:08.669Z,2.80
2022-11-01T18:06:23.622Z,3.17
2022-11-01T18:08:59.433Z,3.05
2022-11-01T18:11:55.229Z,2.90
2022-11-01T18:14:28.091Z,2.40
2022-11-01T18:17:18.042Z,3.58
2022-11-01T18:19:59.460Z,3.92
2022-11-01T18:22:31.497Z,3.28
2022-11-01T18:27:48.245Z,3.40
2022-11-01T18:30:19.958Z,3.35
2022-11-01T18:33:12.395Z,2.70
2022-11-01T18:35:45.343Z,3.80
2022-11-01T18:38:29.922Z,8.23
2022-11-01T18:41:01.272Z,5.82
2022-11-01T18:43:41.355Z,5.18
2022-11-01T18:46:26.261Z,4.50
2022-11-01T18:49:08.781Z,4.50
2022-11-01T18:51:38.452Z,3.85
2022-11-01T18:54:12.705Z,3.80
2022-11-01T18:56:50.719Z,3.97
2022-11-01T18:59:32.735Z,4.72
2022-11-01T19:02:05.780Z,3.17
2022-11-01T19:04:35.917Z,3.55
2022-11-01T19:07:15.123Z,3.22
2022-11-01T19:10:01.374Z,2.80
2022-11-01T19:12:39.538Z,3.08
2022-11-01T19:18:30.077Z,2.53
2022-11-01T19:21:01.581Z,2.58
2022-11-01T19:23:48.291Z,4.47
2022-11-01T19:26:23.131Z,3.45
2022-11-01T19:29:04.696Z,4.05
2022-11-01T19:31:45.571Z,5.28
2022-11-01T19:34:24.441Z,5.13
2022-11-01T19:36:58.056Z,6.72
2022-11-01T19:39:30.783Z,7.03
2022-11-01T19:42:08.918Z,6.45
2022-11-01T19:44:55.996Z,6.65
2022-11-01T19:47:31.755Z,6.68
2022-11-01T19:50:03.573Z,5.65
2022-11-01T19:52:50.255Z,4.50
2022-11-01T19:55:44.511Z,4.50
2022-11-01T19:58:28.107Z,4.63
2022-11-01T20:01:07.812Z,4.97
2022-11-01T20:03:44.612Z,5.15
2022-11-01T20:06:16.144Z,5.30
2022-11-01T20:08:53.171Z,5.00
2022-11-01T20:11:24.657Z,6.78
2022-11-01T20:13:59.497Z,5.13
2022-11-01T20:16:29.921Z,6.03
2022-11-01T20:19:03.145Z,4.82
2022-11-01T20:21:30.455Z,6.10
2022-11-01T20:24:04.176Z,6.68
2022-11-01T20:26:37.191Z,6.22
2022-11-01T20:29:10.175Z,6.43
2022-11-01T20:31:41.810Z,7.85
2022-11-01T20:34:14.701Z,6.15
2022-11-01T20:36:46.863Z,6.18
2022-11-01T20:39:28.024Z,7.22
2022-11-01T20:41:57.897Z,6.95
2022-11-01T20:44:35.163Z,5.88
2022-11-01T20:47:07.686Z,6.10
2022-11-01T20:49:41.740Z,6.20
2022-11-01T20:52:39.217Z,7.28
2022-11-01T20:55:25.220Z,7.03
2022-11-01T21:00:32.007Z,6.60
2022-11-01T21:02:59.345Z,7.82
2022-11-01T21:05:33.270Z,8.55
2022-11-01T21:08:05.656Z,7.18
2022-11-01T21:13:29.647Z,6.28
2022-11-01T21:15:58.078Z,7.90
2022-11-01T21:18:46.838Z,8.25
2022-11-01T21:21:23.086Z,8.85
2022-11-01T21:23:58.370Z,7.82
2022-11-01T21:26:34.859Z,8.15
2022-11-01T21:29:05.831Z,7.57
2022-11-01T21:31:36.922Z,7.65
2022-11-01T21:34:26.296Z,6.80
2022-11-01T21:36:56.584Z,7.00
2022-11-01T21:52:47.795Z,7.72
2022-11-01T21:59:21.230Z,7.05
2022-11-01T22:30:47.726Z,7.75
2022-11-01T22:36:24.696Z,8.25
2022-11-01T22:38:55.765Z,7.55
2022-11-01T22:41:33.411Z,7.63
2022-11-01T22:44:11.565Z,7.07
2022-11-01T22:46:38.738Z,6.55
2022-11-01T22:49:16.957Z,6.85
2022-11-01T22:52:01.087Z,6.80
2022-11-01T22:54:35.514Z,7.82
2022-11-01T22:57:22.989Z,6.70
2022-11-01T22:59:50.271Z,6.80
2022-11-01T23:02:17.487Z,7.03
2022-11-01T23:04:55.502Z,6.60
2022-11-01T23:07:35.996Z,6.07
2022-11-01T23:10:13.499Z,5.97
2022-11-01T23:12:59.353Z,6.50
2022-11-01T23:21:03.091Z,6.32
2022-11-01T23:23:30.287Z,6.50
2022-11-01T23:26:00.455Z,5.93
2022-11-01T23:28:27.771Z,6.43
2022-11-01T23:30:55.408Z,6.38
2022-11-01T23:33:23.858Z,5.28
2022-11-01T23:36:01.046Z,5.60
2022-11-01T23:38:40.555Z,5.50
2022-11-01T23:41:18.861Z,6.20
2022-11-01T23:43:55.050Z,5.88
2022-11-01T23:46:22.483Z,7.68
2022-11-01T23:48:49.930Z,5.13
2022-11-01T23:51:21.814Z,7.15
2022-11-01T23:53:51.477Z,5.43
2022-11-01T23:56:19.619Z,5.80
2022-11-01T23:58:48.643Z,5.45
